createdAt,value
2019-03-13T00:00:38.687Z,99321.98
2019-03-13T00:03:09.965Z,99318.52
2019-03-13T00:05:41.272Z,99318.59
2019-03-13T00:08:12.662Z,99312.47
2019-03-13T00:10:44.056Z,99308.37
2019-03-13T00:13:15.436Z,99315.41
2019-03-13T00:15:49.531Z,99309.53
2019-03-13T00:18:19.807Z,99311.14
2019-03-13T00:20:51.044Z,99304.05
2019-03-13T00:23:22.326Z,99297.02
2019-03-13T00:25:53.646Z,99303.27
2019-03-13T00:28:25.024Z,99301.13
2019-03-13T00:30:56.639Z,99294.91
2019-03-13T00:33:27.903Z,99289.91
2019-03-13T00:35:59.215Z,99296.70
2019-03-13T00:38:30.530Z,99300.53
2019-03-13T00:41:01.735Z,99291.78
2019-03-13T00:43:33.064Z,99290.27
2019-03-13T00:46:04.392Z,99293.41
2019-03-13T00:48:35.764Z,99286.50
2019-03-13T00:51:07.177Z,99287.36
2019-03-13T00:53:38.619Z,99282.53
2019-03-13T00:56:09.892Z,99284.23
2019-03-13T00:58:41.317Z,99275.56
2019-03-13T01:01:29.285Z,99282.34
2019-03-13T01:04:11.216Z,99284.66
2019-03-13T01:06:44.319Z,99284.66
2019-03-13T01:09:15.687Z,99293.53
2019-03-13T01:11:47.091Z,99290.80
2019-03-13T01:14:18.443Z,99290.80
2019-03-13T01:16:50.438Z,99284.05
2019-03-13T01:19:21.575Z,99285.88
2019-03-13T01:21:53.096Z,99283.91
2019-03-13T01:24:24.544Z,99284.52
2019-03-13T01:26:55.988Z,99286.88
2019-03-13T01:29:27.373Z,99294.43
2019-03-13T01:32:06.201Z,99293.30
2019-03-13T01:34:39.057Z,99292.17
2019-03-13T01:37:10.588Z,99295.66
2019-03-13T01:39:41.918Z,99291.75
2019-03-13T01:42:13.298Z,99295.66
2019-03-13T01:44:44.705Z,99304.88
2019-03-13T01:47:16.039Z,99308.03
2019-03-13T01:49:47.539Z,99307.18
2019-03-13T01:52:19.033Z,99298.65
2019-03-13T01:54:50.292Z,99301.66
2019-03-13T01:57:21.830Z,99307.75
2019-03-13T01:59:53.170Z,99316.98
2019-03-13T02:02:24.529Z,99317.19
2019-03-13T02:04:55.913Z,99304.86
2019-03-13T02:07:27.245Z,99316.68
2019-03-13T02:09:58.529Z,99316.15
2019-03-13T02:12:29.862Z,99316.15
2019-03-13T02:15:01.337Z,99319.80
2019-03-13T02:17:32.648Z,99312.88
2019-03-13T02:20:05.005Z,99321.73
2019-03-13T02:22:36.825Z,99319.08
2019-03-13T02:25:12.579Z,99317.80
2019-03-13T02:27:45.223Z,99319.41
2019-03-13T02:30:19.734Z,99316.68
2019-03-13T02:32:50.992Z,99311.05
2019-03-13T02:35:22.281Z,99307.84
2019-03-13T02:37:53.574Z,99305.99
2019-03-13T02:40:24.993Z,99303.20
2019-03-13T02:42:56.681Z,99307.17
2019-03-13T02:45:28.103Z,99302.36
2019-03-13T02:47:59.448Z,99309.45
2019-03-13T02:50:30.844Z,99314.91
2019-03-13T02:53:02.179Z,99302.13
2019-03-13T02:55:34.520Z,99305.97
2019-03-13T02:58:05.852Z,99303.20
2019-03-13T03:00:41.640Z,99310.08
2019-03-13T03:03:26.767Z,99309.33
2019-03-13T03:05:59.766Z,99312.47
2019-03-13T03:08:31.028Z,99311.98
2019-03-13T03:11:02.468Z,99317.54
2019-03-13T03:13:33.899Z,99322.97
2019-03-13T03:16:06.520Z,99325.08
2019-03-13T03:18:37.928Z,99325.08
2019-03-13T03:21:09.302Z,99323.28
2019-03-13T03:23:45.055Z,99327.36
2019-03-13T03:26:13.637Z,99319.23
2019-03-13T03:28:44.972Z,99332.50
2019-03-13T03:31:16.316Z,99333.38
2019-03-13T03:33:59.021Z,99337.78
2019-03-13T03:36:30.478Z,99344.85
2019-03-13T03:39:01.673Z,99336.17
2019-03-13T03:41:34.630Z,99329.70
2019-03-13T03:44:05.969Z,99331.63
2019-03-13T03:46:37.368Z,99331.31
2019-03-13T03:49:09.810Z,99328.00
2019-03-13T03:51:41.224Z,99337.17
2019-03-13T03:54:12.527Z,99335.30
2019-03-13T03:56:43.894Z,99332.02
2019-03-13T03:59:15.150Z,99339.00
2019-03-13T04:01:46.542Z,99337.11
2019-03-13T04:04:17.846Z,99341.22
2019-03-13T04:06:49.225Z,99341.22
2019-03-13T04:09:20.538Z,99341.64
2019-03-13T04:11:51.885Z,99344.20
2019-03-13T04:14:23.193Z,99346.52
2019-03-13T04:16:54.621Z,99346.28
2019-03-13T04:19:25.939Z,99343.25
2019-03-13T04:21:57.274Z,99339.33
2019-03-13T04:24:28.601Z,99342.20
2019-03-13T04:26:59.942Z,99341.70
2019-03-13T04:29:31.235Z,99344.77
2019-03-13T04:32:02.614Z,99352.78
2019-03-13T04:34:34.012Z,99349.16
2019-03-13T04:37:05.344Z,99354.94
2019-03-13T04:39:36.677Z,99359.48
2019-03-13T04:42:08.021Z,99365.33
2019-03-13T04:44:39.324Z,99374.52
2019-03-13T04:47:10.641Z,99384.35
2019-03-13T04:49:43.548Z,99379.52
2019-03-13T04:52:14.884Z,99382.66
2019-03-13T04:54:46.206Z,99385.80
2019-03-13T04:57:17.627Z,99379.97
2019-03-13T04:59:48.916Z,99393.38
2019-03-13T05:02:20.171Z,99393.08
2019-03-13T05:04:51.505Z,99395.07
2019-03-13T05:07:22.975Z,99396.94
2019-03-13T05:09:54.284Z,99408.52
2019-03-13T05:12:26.137Z,99410.51
2019-03-13T05:14:57.609Z,99416.45
2019-03-13T05:17:28.932Z,99419.30
2019-03-13T05:20:00.392Z,99415.22
2019-03-13T05:22:31.680Z,99420.77
2019-03-13T05:25:02.985Z,99417.92
2019-03-13T05:27:34.278Z,99420.63
2019-03-13T05:30:08.354Z,99421.47
2019-03-13T05:32:39.790Z,99424.77
2019-03-13T05:35:11.037Z,99421.89
2019-03-13T05:37:42.374Z,99421.89
2019-03-13T05:40:13.607Z,99427.30
2019-03-13T05:42:44.882Z,99428.84
2019-03-13T05:45:16.320Z,99429.55
2019-03-13T05:47:47.672Z,99429.55
2019-03-13T05:50:19.063Z,99426.31
2019-03-13T05:52:50.356Z,99412.97
2019-03-13T05:55:21.663Z,99415.52
2019-03-13T05:57:52.921Z,99426.97
2019-03-13T06:00:25.043Z,99420.28
2019-03-13T06:02:55.608Z,99422.23
2019-03-13T06:05:26.644Z,99423.67
2019-03-13T06:07:57.965Z,99430.66
2019-03-13T06:10:29.257Z,99433.90
2019-03-13T06:13:00.667Z,99438.03
2019-03-13T06:15:32.022Z,99431.72
2019-03-13T06:18:03.395Z,99439.02
2019-03-13T06:20:34.761Z,99452.67
2019-03-13T06:23:06.030Z,99454.73
2019-03-13T06:25:37.336Z,99456.23
2019-03-13T06:28:08.748Z,99460.02
2019-03-13T06:30:40.061Z,99465.13
2019-03-13T06:33:11.475Z,99471.76
2019-03-13T06:35:42.888Z,99479.30
2019-03-13T06:38:31.163Z,99481.11
2019-03-13T06:41:05.111Z,99471.83
2019-03-13T06:43:35.595Z,99473.82
2019-03-13T06:46:06.917Z,99476.23
2019-03-13T06:48:41.181Z,99476.21
2019-03-13T06:51:15.714Z,99475.66
2019-03-13T06:53:47.087Z,99476.23
2019-03-13T06:56:18.270Z,99483.56
2019-03-13T06:58:51.194Z,99491.89
2019-03-13T07:01:24.015Z,99485.30
2019-03-13T07:03:56.826Z,99482.28
2019-03-13T07:06:29.835Z,99482.47
2019-03-13T07:09:05.683Z,99477.68
2019-03-13T07:11:39.984Z,99479.55
2019-03-13T07:14:27.695Z,99477.44
2019-03-13T07:17:06.289Z,99483.19
2019-03-13T07:19:54.406Z,99471.76
2019-03-13T07:22:37.553Z,99478.77
2019-03-13T07:25:26.495Z,99471.33
2019-03-13T07:28:17.112Z,99473.35
2019-03-13T07:30:49.959Z,99469.55
2019-03-13T07:33:39.069Z,99477.98
2019-03-13T07:36:16.148Z,99484.17
2019-03-13T07:38:51.955Z,99485.98
2019-03-13T07:41:24.948Z,99484.00
2019-03-13T07:44:16.126Z,99482.50
2019-03-13T07:47:07.385Z,99480.26
2019-03-13T07:49:43.072Z,99478.88
2019-03-13T07:52:32.946Z,99472.00
2019-03-13T07:55:11.703Z,99471.62
2019-03-13T07:57:57.300Z,99485.73
2019-03-13T08:00:33.484Z,99479.98
2019-03-13T08:03:06.430Z,99479.81
2019-03-13T08:05:48.353Z,99473.70
2019-03-13T08:08:24.045Z,99474.94
2019-03-13T08:10:56.986Z,99480.08
2019-03-13T08:13:45.233Z,99474.10
2019-03-13T08:16:20.804Z,99469.78
2019-03-13T08:18:59.404Z,99462.67
2019-03-13T08:21:35.257Z,99472.98
2019-03-13T08:24:17.346Z,99472.63
2019-03-13T08:26:50.067Z,99468.64
2019-03-13T08:29:26.050Z,99468.40
2019-03-13T08:32:16.838Z,99470.62
2019-03-13T08:34:49.757Z,99479.47
2019-03-13T08:37:41.786Z,99475.11
2019-03-13T08:40:16.035Z,99477.73
2019-03-13T08:42:48.780Z,99479.49
2019-03-13T08:45:24.512Z,99479.95
2019-03-13T08:48:00.439Z,99476.64
2019-03-13T08:50:39.339Z,99483.75
2019-03-13T08:53:14.961Z,99491.37
2019-03-13T08:55:50.450Z,99480.27
2019-03-13T08:58:26.085Z,99483.09
2019-03-13T09:00:58.905Z,99475.25
2019-03-13T09:03:34.638Z,99485.80
2019-03-13T09:06:07.520Z,99489.84
2019-03-13T09:08:52.324Z,99489.34
2019-03-13T09:11:28.032Z,99486.33
2019-03-13T09:14:16.168Z,99492.50
2019-03-13T09:16:55.505Z,99486.64
2019-03-13T09:19:34.385Z,99482.84
2019-03-13T09:22:19.179Z,99488.68
2019-03-13T09:25:12.360Z,99492.75
2019-03-13T09:27:58.978Z,99494.42
2019-03-13T09:30:31.844Z,99500.66
2019-03-13T09:33:19.838Z,99504.32
2019-03-13T09:36:08.862Z,99505.52
2019-03-13T09:38:41.686Z,99495.52
2019-03-13T09:41:14.457Z,99507.29
2019-03-13T09:44:03.438Z,99494.48
2019-03-13T09:46:41.903Z,99497.15
2019-03-13T09:49:15.005Z,99492.15
2019-03-13T09:52:04.028Z,99487.61
2019-03-13T09:54:36.894Z,99498.06
2019-03-13T09:57:09.761Z,99493.77
2019-03-13T09:59:58.697Z,99490.19
2019-03-13T10:02:31.485Z,99496.80
2019-03-13T10:05:04.378Z,99492.15
2019-03-13T10:07:43.240Z,99497.20
2019-03-13T10:10:16.085Z,99494.19
2019-03-13T10:12:52.120Z,99483.20
2019-03-13T10:15:28.042Z,99484.42
2019-03-13T10:18:03.808Z,99485.91
2019-03-13T10:20:53.354Z,99483.30
2019-03-13T10:23:26.201Z,99483.45
2019-03-13T10:26:12.297Z,99483.19
2019-03-13T10:28:47.828Z,99480.50
2019-03-13T10:31:26.637Z,99475.84
2019-03-13T10:33:59.369Z,99473.84
2019-03-13T10:36:44.113Z,99475.47
2019-03-13T10:39:22.559Z,99481.45
2019-03-13T10:41:58.946Z,99479.47
2019-03-13T10:44:41.295Z,99483.65
2019-03-13T10:47:16.784Z,99490.50
2019-03-13T10:49:55.458Z,99486.16
2019-03-13T10:52:40.084Z,99487.44
2019-03-13T10:55:18.869Z,99485.48
2019-03-13T10:58:12.149Z,99482.77
2019-03-13T11:00:56.820Z,99480.17
2019-03-13T11:03:32.575Z,99491.66
2019-03-13T11:06:20.498Z,99492.81
2019-03-13T11:09:09.690Z,99494.48
2019-03-13T11:11:42.529Z,99491.59
2019-03-13T11:14:21.089Z,99475.67
2019-03-13T11:16:53.869Z,99484.47
2019-03-13T11:19:26.571Z,99483.57
2019-03-13T11:21:59.331Z,99479.52
2019-03-13T11:24:40.922Z,99487.19
2019-03-13T11:27:31.819Z,99482.36
2019-03-13T11:30:07.270Z,99488.67
2019-03-13T11:32:43.021Z,99492.42
2019-03-13T11:35:21.745Z,99495.50
2019-03-13T11:37:57.328Z,99492.47
2019-03-13T11:40:36.073Z,99507.48
2019-03-13T11:43:08.805Z,99499.01
2019-03-13T11:46:02.807Z,99503.20
2019-03-13T11:48:35.818Z,99500.83
2019-03-13T11:51:14.573Z,99509.17
2019-03-13T11:53:51.347Z,99500.49
2019-03-13T11:56:40.294Z,99503.19
2019-03-13T11:59:18.960Z,99505.02
2019-03-13T12:01:51.803Z,99509.68
2019-03-13T12:04:24.812Z,99511.97
2019-03-13T12:07:00.396Z,99506.07
2019-03-13T12:09:36.232Z,99514.68
2019-03-13T12:12:13.755Z,99513.84
2019-03-13T12:14:46.629Z,99511.80
2019-03-13T12:17:19.432Z,99510.96
2019-03-13T12:19:52.192Z,99523.11
2019-03-13T12:22:28.121Z,99520.97
2019-03-13T12:25:04.312Z,99519.31
2019-03-13T12:27:42.821Z,99526.48
2019-03-13T12:30:22.790Z,99519.70
2019-03-13T12:33:10.775Z,99529.56
2019-03-13T12:35:52.633Z,99528.52
2019-03-13T12:38:43.683Z,99526.84
2019-03-13T12:41:33.117Z,99524.16
2019-03-13T12:44:09.898Z,99527.14
2019-03-13T12:46:51.513Z,99527.91
2019-03-13T12:49:30.011Z,99525.65
2019-03-13T12:52:02.835Z,99531.67
2019-03-13T12:54:38.593Z,99528.94
2019-03-13T12:57:11.393Z,99527.48
2019-03-13T13:00:00.679Z,99530.28
2019-03-13T13:02:34.835Z,99533.80
2019-03-13T13:05:29.572Z,99527.09
2019-03-13T13:08:02.350Z,99537.70
2019-03-13T13:10:50.534Z,99537.42
2019-03-13T13:13:23.248Z,99535.48
2019-03-13T13:15:55.975Z,99537.80
2019-03-13T13:18:31.488Z,99536.19
2019-03-13T13:21:02.602Z,99531.88
2019-03-13T13:23:33.727Z,99532.38
2019-03-13T13:26:04.976Z,99528.20
2019-03-13T13:28:36.044Z,99527.34
2019-03-13T13:31:07.208Z,99520.47
2019-03-13T13:33:38.476Z,99523.17
2019-03-13T13:36:09.729Z,99522.80
2019-03-13T13:38:40.886Z,99520.81
2019-03-13T13:41:12.004Z,99522.41
2019-03-13T13:43:43.226Z,99525.69
2019-03-13T13:46:20.048Z,99532.56
2019-03-13T13:48:51.253Z,99526.15
2019-03-13T13:51:22.489Z,99532.07
2019-03-13T13:53:55.773Z,99539.69
2019-03-13T13:56:26.779Z,99537.33
2019-03-13T13:58:58.430Z,99531.56
2019-03-13T14:01:29.585Z,99531.83
2019-03-13T14:04:00.869Z,99531.32
2019-03-13T14:06:32.142Z,99538.30
2019-03-13T14:09:04.917Z,99545.42
2019-03-13T14:11:37.587Z,99540.97
2019-03-13T14:14:09.037Z,99540.26
2019-03-13T14:16:40.258Z,99533.71
2019-03-13T14:19:11.539Z,99535.23
2019-03-13T14:21:42.684Z,99532.65
2019-03-13T14:24:17.012Z,99533.59
2019-03-13T14:26:46.877Z,99537.66
2019-03-13T14:29:18.114Z,99537.20
2019-03-13T14:31:49.246Z,99540.55
2019-03-13T14:34:20.369Z,99544.55
2019-03-13T14:36:51.531Z,99544.76
2019-03-13T14:39:22.715Z,99543.67
2019-03-13T14:41:53.883Z,99550.33
2019-03-13T14:44:25.061Z,99550.23
2019-03-13T14:46:56.225Z,99550.13
2019-03-13T14:49:27.710Z,99552.31
2019-03-13T14:51:58.873Z,99552.13
2019-03-13T14:54:29.995Z,99548.77
2019-03-13T14:57:01.661Z,99554.25
2019-03-13T14:59:34.543Z,99559.47
2019-03-13T15:02:05.949Z,99552.65
2019-03-13T15:04:37.257Z,99558.72
2019-03-13T15:07:08.465Z,99557.91
2019-03-13T15:09:39.614Z,99556.70
2019-03-13T15:12:10.806Z,99562.53
2019-03-13T15:14:41.890Z,99565.52
2019-03-13T15:17:13.133Z,99570.73
2019-03-13T15:19:44.285Z,99566.16
2019-03-13T15:22:15.450Z,99566.86
2019-03-13T15:24:46.756Z,99560.72
2019-03-13T15:27:17.995Z,99559.26
2019-03-13T15:29:49.285Z,99563.89
2019-03-13T15:32:20.677Z,99572.11
2019-03-13T15:34:52.050Z,99568.41
2019-03-13T15:37:23.318Z,99575.78
2019-03-13T15:39:56.173Z,99577.90
2019-03-13T15:42:27.491Z,99582.58
2019-03-13T15:44:59.002Z,99589.31
2019-03-13T15:47:30.259Z,99596.27
2019-03-13T15:50:01.317Z,99600.88
2019-03-13T15:52:32.813Z,99599.91
2019-03-13T15:55:09.532Z,99607.57
2019-03-13T15:57:40.836Z,99604.31
2019-03-13T16:00:26.142Z,99612.04
2019-03-13T16:02:57.719Z,99605.59
2019-03-13T16:05:29.023Z,99611.03
2019-03-13T16:08:00.361Z,99600.67
2019-03-13T16:10:31.726Z,99606.98
2019-03-13T16:13:04.552Z,99609.41
2019-03-13T16:15:37.471Z,99612.28
2019-03-13T16:18:08.749Z,99619.73
2019-03-13T16:20:39.997Z,99618.30
2019-03-13T16:23:11.314Z,99611.14
2019-03-13T16:25:42.634Z,99619.52
2019-03-13T16:28:14.726Z,99617.56
2019-03-13T16:30:49.805Z,99616.30
2019-03-13T16:33:20.719Z,99625.19
2019-03-13T16:35:53.456Z,99619.73
2019-03-13T16:38:24.766Z,99615.20
2019-03-13T16:40:56.887Z,99620.88
2019-03-13T16:43:28.239Z,99629.67
2019-03-13T16:45:59.546Z,99622.98
2019-03-13T16:48:30.794Z,99630.05
2019-03-13T16:51:01.903Z,99638.08
2019-03-13T16:53:33.135Z,99640.66
2019-03-13T16:56:04.484Z,99644.70
2019-03-13T16:58:35.822Z,99642.80
2019-03-13T17:01:07.160Z,99648.77
2019-03-13T17:03:38.421Z,99651.76
2019-03-13T17:06:09.746Z,99654.38
2019-03-13T17:08:42.695Z,99653.34
2019-03-13T17:11:14.101Z,99654.33
2019-03-13T17:13:45.442Z,99659.73
2019-03-13T17:16:16.760Z,99668.96
2019-03-13T17:18:48.302Z,99660.02
2019-03-13T17:21:19.552Z,99662.23
2019-03-13T17:23:50.824Z,99672.92
2019-03-13T17:26:22.196Z,99667.20
2019-03-13T17:28:53.550Z,99672.23
2019-03-13T17:31:24.931Z,99664.08
2019-03-13T17:33:56.245Z,99677.95
2019-03-13T17:36:27.600Z,99670.33
2019-03-13T17:38:59.364Z,99665.74
2019-03-13T17:41:30.641Z,99666.02
2019-03-13T17:44:01.978Z,99676.39
2019-03-13T17:46:33.346Z,99672.55
2019-03-13T17:49:08.231Z,99669.84
2019-03-13T17:51:39.596Z,99665.13
2019-03-13T17:54:12.197Z,99668.09
2019-03-13T17:56:43.572Z,99668.14
2019-03-13T17:59:14.896Z,99676.52
2019-03-13T18:01:46.147Z,99670.38
2019-03-13T18:04:23.807Z,99672.83
2019-03-13T18:06:55.046Z,99680.66
2019-03-13T18:09:26.475Z,99682.66
2019-03-13T18:11:57.904Z,99686.98
2019-03-13T18:14:32.076Z,99689.56
2019-03-13T18:17:02.381Z,99684.44
2019-03-13T18:19:36.195Z,99684.72
2019-03-13T18:22:07.572Z,99690.05
2019-03-13T18:24:41.919Z,99689.31
2019-03-13T18:27:14.882Z,99686.73
2019-03-13T18:29:49.409Z,99685.09
2019-03-13T18:32:21.617Z,99678.98
2019-03-13T18:34:53.061Z,99685.95
2019-03-13T18:37:24.251Z,99688.58
2019-03-13T18:39:55.632Z,99690.35
2019-03-13T18:42:26.886Z,99685.70
2019-03-13T18:45:00.668Z,99690.28
2019-03-13T18:47:31.963Z,99695.84
2019-03-13T18:50:04.234Z,99695.84
2019-03-13T18:52:35.575Z,99698.27
2019-03-13T18:55:09.951Z,99696.81
2019-03-13T18:57:41.111Z,99698.98
2019-03-13T19:00:21.345Z,99695.28
2019-03-13T19:02:52.617Z,99698.59
2019-03-13T19:05:23.949Z,99695.63
2019-03-13T19:07:55.308Z,99693.78
2019-03-13T19:10:28.120Z,99695.73
2019-03-13T19:12:59.588Z,99699.97
2019-03-13T19:15:30.776Z,99698.47
2019-03-13T19:18:02.014Z,99710.94
2019-03-13T19:20:33.357Z,99710.94
2019-03-13T19:23:04.722Z,99704.55
2019-03-13T19:25:35.972Z,99705.53
2019-03-13T19:28:07.353Z,99708.73
2019-03-13T19:30:38.688Z,99704.57
2019-03-13T19:33:09.964Z,99705.29
2019-03-13T19:35:41.251Z,99705.91
2019-03-13T19:38:14.949Z,99705.91
2019-03-13T19:40:46.302Z,99709.20
2019-03-13T19:43:17.644Z,99723.02
2019-03-13T19:45:48.959Z,99712.84
2019-03-13T19:48:20.199Z,99714.67
2019-03-13T19:50:51.418Z,99713.09
2019-03-13T19:53:22.761Z,99719.19
2019-03-13T19:55:54.031Z,99723.88
2019-03-13T19:58:25.625Z,99726.91
2019-03-13T20:00:58.112Z,99717.91
2019-03-13T20:03:29.514Z,99718.59
2019-03-13T20:06:00.856Z,99715.94
2019-03-13T20:08:32.190Z,99726.59
2019-03-13T20:11:03.665Z,99726.59
2019-03-13T20:13:35.210Z,99724.89
2019-03-13T20:16:06.585Z,99729.92
2019-03-13T20:18:37.925Z,99733.54
2019-03-13T20:21:09.270Z,99736.31
2019-03-13T20:23:41.858Z,99735.01
2019-03-13T20:26:13.192Z,99723.48
2019-03-13T20:28:46.226Z,99733.06
2019-03-13T20:31:17.426Z,99736.33
2019-03-13T20:33:48.809Z,99733.79
2019-03-13T20:36:20.213Z,99740.89
2019-03-13T20:38:51.542Z,99733.44
2019-03-13T20:41:22.933Z,99747.73
2019-03-13T20:43:54.301Z,99747.73
2019-03-13T20:46:25.717Z,99745.44
2019-03-13T20:48:57.067Z,99744.84
2019-03-13T20:51:28.438Z,99740.54
2019-03-13T20:53:59.705Z,99733.55
2019-03-13T20:56:31.001Z,99739.55
2019-03-13T20:59:02.327Z,99737.53
2019-03-13T21:01:33.675Z,99736.93
2019-03-13T21:04:07.511Z,99734.78
2019-03-13T21:06:38.159Z,99740.41
2019-03-13T21:09:09.400Z,99738.73
2019-03-13T21:11:41.086Z,99736.91
2019-03-13T21:14:12.347Z,99739.56
2019-03-13T21:16:43.609Z,99740.02
2019-03-13T21:19:14.871Z,99737.39
2019-03-13T21:21:46.228Z,99746.01
2019-03-13T21:24:17.577Z,99745.55
2019-03-13T21:26:49.486Z,99733.42
2019-03-13T21:29:21.006Z,99740.86
2019-03-13T21:31:52.361Z,99738.09
2019-03-13T21:34:23.639Z,99737.64
2019-03-13T21:36:56.056Z,99734.27
2019-03-13T21:39:27.634Z,99739.30
2019-03-13T21:41:58.914Z,99739.06
2019-03-13T21:44:30.227Z,99739.65
2019-03-13T21:47:01.439Z,99741.09
2019-03-13T21:49:32.632Z,99737.84
2019-03-13T21:52:03.883Z,99740.95
2019-03-13T21:54:35.181Z,99735.09
2019-03-13T21:57:06.550Z,99735.53
2019-03-13T21:59:37.956Z,99734.86
2019-03-13T22:02:09.803Z,99723.88
2019-03-13T22:04:41.022Z,99724.31
2019-03-13T22:07:12.296Z,99721.09
2019-03-13T22:09:43.627Z,99731.31
2019-03-13T22:12:15.032Z,99726.27
2019-03-13T22:14:46.387Z,99723.51
2019-03-13T22:17:17.823Z,99726.27
2019-03-13T22:19:49.081Z,99729.16
2019-03-13T22:22:20.300Z,99730.45
2019-03-13T22:24:51.549Z,99728.22
2019-03-13T22:27:22.842Z,99730.11
2019-03-13T22:29:54.123Z,99731.09
2019-03-13T22:32:25.542Z,99731.46
2019-03-13T22:34:56.925Z,99720.73
2019-03-13T22:37:28.237Z,99725.19
2019-03-13T22:39:59.624Z,99718.59
2019-03-13T22:42:31.066Z,99724.59
2019-03-13T22:45:02.283Z,99723.12
2019-03-13T22:47:42.562Z,99731.76
2019-03-13T22:50:09.785Z,99723.08
2019-03-13T22:52:41.100Z,99725.16
2019-03-13T22:55:12.366Z,99724.57
2019-03-13T22:57:43.712Z,99727.89
2019-03-13T23:00:22.286Z,99726.03
2019-03-13T23:02:55.289Z,99718.90
2019-03-13T23:05:26.592Z,99722.56
2019-03-13T23:07:57.875Z,99719.89
2019-03-13T23:10:33.817Z,99724.38
2019-03-13T23:13:05.144Z,99722.36
2019-03-13T23:15:36.434Z,99721.68
2019-03-13T23:18:08.243Z,99718.96
2019-03-13T23:20:39.631Z,99713.52
2019-03-13T23:23:10.967Z,99721.13
2019-03-13T23:25:42.373Z,99723.61
2019-03-13T23:28:13.730Z,99723.38
2019-03-13T23:30:45.068Z,99721.13
2019-03-13T23:33:16.389Z,99717.67
2019-03-13T23:35:48.984Z,99719.81
2019-03-13T23:38:20.371Z,99713.23
2019-03-13T23:40:51.761Z,99710.67
2019-03-13T23:43:23.153Z,99709.73
2019-03-13T23:45:55.149Z,99710.91
2019-03-13T23:48:25.652Z,99707.39
2019-03-13T23:50:56.571Z,99708.77
2019-03-13T23:53:27.826Z,99709.47
2019-03-13T23:55:59.015Z,99713.19
2019-03-13T23:58:30.254Z,99720.22
